• Join FlightAware (Why Join?)
  • Login
  • US Flag 
02:21AM EDT


 

Airport Tracker/Info


-or-


 

Live Flight TrackerFlight Track Log ✈ N2116L ✈ 28-Apr-2013 ✈ KDKX - KMGY

Flight Track Log - Related Links

Times and Time Zones

All times are in EDT time to prevent confusion due to time zone crossing. See the N2116L flight status page for this flight to view local times or setup timezone preferences in your user account.

Time Position Orientation Groundspeed Altitude Reporting Facility
EDT Latitude Longitude Course Direction KTS MPH feet Rate Location/Type
11:10AM 36.0975 -83.7303 353° North 116 133 5,900  Level Atlanta Center
11:11AM 36.1331 -83.7353 354° North 135 155 6,000  Climbing Atlanta Center
11:12AM 36.1747 -83.7403 354° North 142 163 6,000  Level Atlanta Center
11:13AM 36.2186 -83.7478 352° North 147 169 6,000 -60 Level Atlanta Center
11:14AM 36.2993 -83.6114 353° North  Level FlightAware Approximate
11:15AM 36.3008 -83.7564 355° North 160 184 5,900  Level Indianapolis Center
11:16AM 36.3528 -83.7628 354° North 157 181 6,000  Climbing Indianapolis Center
11:17AM 36.3947 -83.7697 352° North 154 177 6,000  Level Indianapolis Center
11:18AM 36.4331 -83.7742 355° North 145 167 6,000  Level Indianapolis Center
11:19AM 36.4708 -83.7794 354° North 140 161 6,000  Level Indianapolis Center
11:20AM 36.5133 -83.7847 354° North 141 162 6,000  Level Indianapolis Center
11:21AM 36.5611 -83.7928 352° North 160 184 6,000  Level Indianapolis Center
11:22AM 36.6083 -83.8008 352° North 168 193 6,000  Level Indianapolis Center
11:23AM 36.6556 -83.8050 356° North 169 194 6,000  Level Indianapolis Center
11:24AM 36.7008 -83.8103 355° North 166 191 6,000  Level Indianapolis Center
11:25AM 36.7478 -83.8172 353° North 167 192 6,000  Level Indianapolis Center
11:26AM 36.7939 -83.8231 354° North 168 193 6,000  Level Indianapolis Center
11:27AM 36.8500 -83.8322 353° North 172 198 6,000  Level Indianapolis Center
11:28AM 36.8972 -83.8386 354° North 171 197 6,000  Level Indianapolis Center
11:29AM 36.9461 -83.8453 354° North 174 200 6,000  Level Indianapolis Center
11:30AM 36.9942 -83.8525 353° North 174 200 6,000  Level Indianapolis Center
11:31AM 37.0422 -83.8606 352° North 173 199 6,000  Level Indianapolis Center
11:32AM 37.0900 -83.8656 355° North 173 199 6,000  Level Indianapolis Center
11:33AM 37.1389 -83.8717 354° North 175 201 6,000  Level Indianapolis Center
11:34AM 37.1881 -83.8800 352° North 177 204 6,000  Level Indianapolis Center
11:35AM 37.2375 -83.8875 353° North 177 204 6,000  Level Indianapolis Center
11:36AM 37.2947 -83.8936 355° North 176 203 6,000  Level Indianapolis Center
11:37AM 37.3444 -83.9019 352° North 177 204 6,000  Level Indianapolis Center
11:38AM 37.3925 -83.9097 353° North 175 201 6,000  Level Indianapolis Center
11:39AM 37.4419 -83.9150 355° North 177 204 6,000  Level Indianapolis Center
11:40AM 37.4900 -83.9214 354° North 175 201 6,000  Level Indianapolis Center
11:41AM 37.5383 -83.9294 352° North 174 200 6,000 -60 Level Indianapolis Center
11:42AM 37.5864 -83.9342 356° North 173 199 5,900 -60 Descending Indianapolis Center
11:43AM 37.6344 -83.9411 353° North 173 199 5,900  Level Indianapolis Center
11:44AM 37.6814 -83.9489 353° North 171 197 5,900  Level Indianapolis Center
11:45AM 37.7386 -83.9575 353° North 175 201 5,900  Level Indianapolis Center
11:46AM 37.7872 -83.9639 354° North 175 201 5,900  Level Indianapolis Center
11:47AM 37.8358 -83.9725 352° North 176 203 5,900  Level Indianapolis Center
11:48AM 37.8847 -83.9789 354° North 176 203 5,900  Level Indianapolis Center
11:50AM 37.9342 -83.9847 355° North 177 204 5,900  Level Indianapolis Center
11:51AM 37.9839 -83.9919 353° North 178 205 5,900 -300 Level Indianapolis Center
11:52AM 38.0361 -84.0022 351° North 183 211 5,400 -480 Descending Indianapolis Center
11:53AM 38.0919 -84.0078 356° North 192 221 5,000 -240 Descending Indianapolis Center
11:54AM 38.1525 -84.0139 355° North 191 220 5,000  Level Indianapolis Center
11:55AM 38.2014 -84.0200 354° North 184 212 5,000  Level Indianapolis Center
11:56AM 38.2475 -84.0275 353° North 175 201 5,000  Level Indianapolis Center
11:57AM 38.2947 -84.0347 353° North 172 198 5,000  Level Indianapolis Center
11:58AM 38.3411 -84.0433 352° North 170 196 5,000  Level Indianapolis Center
11:59AM 38.3900 -84.0517 352° North 173 199 5,000  Level Indianapolis Center
12:00PM 38.4392 -84.0578 354° North 175 201 5,000  Level Indianapolis Center
12:01PM 38.4961 -84.0650 354° North 176 203 5,000  Level Indianapolis Center
12:02PM 38.5458 -84.0728 353° North 178 205 5,000  Level Indianapolis Center
12:03PM 38.5947 -84.0800 353° North 178 205 5,000  Level Indianapolis Center
12:04PM 38.6447 -84.0864 354° North 179 206 5,000  Level Indianapolis Center
12:05PM 38.6933 -84.0944 353° North 178 205 5,000  Level Indianapolis Center
12:06PM 38.7431 -84.1019 353° North 178 205 5,000  Level Indianapolis Center
12:07PM 38.7947 -84.1092 354° North 181 208 5,000  Level Indianapolis Center
12:08PM 38.8458 -84.1161 354° North 183 211 5,000  Level Indianapolis Center
12:09PM 38.8953 -84.1233 354° North 179 206 5,000  Level Indianapolis Center
12:10PM 38.9450 -84.1303 354° North 178 205 5,000  Level Indianapolis Center
12:11PM 39.0036 -84.1394 353° North 179 206 5,000  Level Indianapolis Center
12:12PM 39.0542 -84.1458 354° North 179 206 5,000  Level Indianapolis Center
12:13PM 39.1042 -84.1539 353° North 180 207 5,000  Level Indianapolis Center
12:14PM 39.1506 -84.1600 354° North 174 200 5,000  Level Indianapolis Center
12:15PM 39.2000 -84.1711 350° North 167 192 5,000  Level Indianapolis Center
12:16PM 39.2169 -84.1706 North 168 193 5,000  Level Indianapolis Center
12:16PM 39.2453 -84.1744 354° North 170 196 5,000  Level Indianapolis Center
12:17PM 39.2647 -84.1767 355° North 172 198 5,000  Level Indianapolis Center
12:17PM 39.2944 -84.1711 North 174 200 5,000  Level Indianapolis Center
12:18PM 39.3142 -84.1617 20° North 186 214 5,000  Level Indianapolis Center
12:18PM 39.3436 -84.1522 14° North 181 208 5,000  Level Indianapolis Center
12:19PM 39.3656 -84.1469 11° North 178 205 5,000  Level Indianapolis Center
12:19PM 39.3917 -84.1378 15° North 178 205 5,000  Level Indianapolis Center
12:20PM 39.4150 -84.1317 11° North 179 206 5,000  Level Indianapolis Center
12:20PM 39.4414 -84.1231 14° North 179 206 5,000  Level Indianapolis Center
12:21PM 39.4622 -84.1161 14° North 179 206 5,000  Level Indianapolis Center
12:21PM 39.4911 -84.1081 12° North 180 207 5,000  Level Indianapolis Center
12:22PM 39.5117 -84.1011 15° North 182 209 5,000 -240 Level Indianapolis Center
12:22PM 39.5411 -84.0925 13° North 181 208 4,800 -600 Descending Indianapolis Center
12:23PM 39.5653 -84.0864 11° North 194 223 4,400 -780 Descending Indianapolis Center
12:23PM 39.6067 -84.0719 15° North 194 223 4,000 -420 Descending Indianapolis Center
12:24PM 39.6189 -84.0689 11° North 207 238 4,000  Level Indianapolis Center
12:24PM 39.6594 -84.0561 14° North 196 226 4,000 -240 Level Indianapolis Center
12:25PM 39.7089 -84.0394 15° North 189 217 3,600 -480 Descending Indianapolis Center
12:26PM 39.7239 -84.0392 North 185 213 3,400 -540 Descending Indianapolis Center
12:26PM 39.7472 -84.0703 314° West 178 205 3,100 -300 Descending Indianapolis Center
12:27PM 39.7472 -84.0883 270° West 156 180 3,100  Level Indianapolis Center
12:27PM 39.7572 -84.1225 291° West 157 181 3,100  Level Indianapolis Center
12:28PM 39.7500 -84.1350 233° Southwest 119 137 3,100 -240 Level Indianapolis Center
12:28PM 39.7328 -84.1489 212° Southwest 132 152 2,900 -420 Descending Indianapolis Center
12:29PM 39.7208 -84.1583 211° Southwest 114 131 2,700 -300 Descending Indianapolis Center
12:30PM 39.7022 -84.1661 198° South 123 142 2,600 -60 Descending Indianapolis Center
12:31PM 39.6736 -84.1778 197° South 114 131 2,600 -180 Level Indianapolis Center
12:32PM 39.6492 -84.1925 205° Southwest 108 124 2,300 -540 Descending Indianapolis Center
12:33PM 39.6161 -84.2122 205° Southwest 94 108 1,500 -720 Descending Indianapolis Center